sensor_id;sensor_type;location;lat;lon;timestamp;temperature;humidity
16643;DHT22;8435;52.184;5.406;2023-02-14T00:00:03;7.30;99.90
16643;DHT22;8435;52.184;5.406;2023-02-14T00:02:33;7.30;99.90
16643;DHT22;8435;52.184;5.406;2023-02-14T00:04:59;7.20;99.90
16643;DHT22;8435;52.184;5.406;2023-02-14T00:07:26;7.20;99.90
16643;DHT22;8435;52.184;5.406;2023-02-14T00:09:53;7.20;99.90
16643;DHT22;8435;52.184;5.406;2023-02-14T00:12:20;7.20;99.90
16643;DHT22;8435;52.184;5.406;2023-02-14T00:14:47;7.10;99.90
16643;DHT22;8435;52.184;5.406;2023-02-14T00:17:32;7.10;99.90
16643;DHT22;8435;52.184;5.406;2023-02-14T00:19:59;7.10;99.90
16643;DHT22;8435;52.184;5.406;2023-02-14T00:22:26;7.10;99.90
16643;DHT22;8435;52.184;5.406;2023-02-14T00:24:52;7.00;99.90
16643;DHT22;8435;52.184;5.406;2023-02-14T00:27:19;7.00;99.90
16643;DHT22;8435;52.184;5.406;2023-02-14T00:29:46;6.90;99.90
16643;DHT22;8435;52.184;5.406;2023-02-14T00:32:13;6.90;99.90
16643;DHT22;8435;52.184;5.406;2023-02-14T00:34:41;6.90;99.90
16643;DHT22;8435;52.184;5.406;2023-02-14T00:37:08;6.90;99.90
16643;DHT22;8435;52.184;5.406;2023-02-14T00:39:34;6.90;99.90
16643;DHT22;8435;52.184;5.406;2023-02-14T00:42:01;6.90;99.90
16643;DHT22;8435;52.184;5.406;2023-02-14T00:44:28;6.80;99.90
16643;DHT22;8435;52.184;5.406;2023-02-14T00:46:55;6.80;99.90
16643;DHT22;8435;52.184;5.406;2023-02-14T00:49:21;6.80;99.90
16643;DHT22;8435;52.184;5.406;2023-02-14T00:51:52;6.80;99.90
16643;DHT22;8435;52.184;5.406;2023-02-14T00:54:19;6.70;99.90
16643;DHT22;8435;52.184;5.406;2023-02-14T00:56:46;6.70;99.90
16643;DHT22;8435;52.184;5.406;2023-02-14T00:59:13;6.70;99.90
16643;DHT22;8435;52.184;5.406;2023-02-14T01:01:40;6.70;99.90
16643;DHT22;8435;52.184;5.406;2023-02-14T01:04:09;6.70;99.90
16643;DHT22;8435;52.184;5.406;2023-02-14T01:06:36;6.60;99.90
16643;DHT22;8435;52.184;5.406;2023-02-14T01:09:04;6.60;99.90
16643;DHT22;8435;52.184;5.406;2023-02-14T01:11:31;6.60;99.90
16643;DHT22;8435;52.184;5.406;2023-02-14T01:13:58;6.50;99.90
16643;DHT22;8435;52.184;5.406;2023-02-14T01:16:29;6.60;99.90
16643;DHT22;8435;52.184;5.406;2023-02-14T01:19:00;6.50;99.90
16643;DHT22;8435;52.184;5.406;2023-02-14T01:21:28;6.50;99.90
16643;DHT22;8435;52.184;5.406;2023-02-14T01:23:58;6.50;99.90
16643;DHT22;8435;52.184;5.406;2023-02-14T01:26:27;6.40;99.90
16643;DHT22;8435;52.184;5.406;2023-02-14T01:28:57;6.40;99.90
16643;DHT22;8435;52.184;5.406;2023-02-14T01:31:26;6.40;99.90
16643;DHT22;8435;52.184;5.406;2023-02-14T01:33:54;6.30;99.90
16643;DHT22;8435;52.184;5.406;2023-02-14T01:36:25;6.30;99.90
16643;DHT22;8435;52.184;5.406;2023-02-14T01:38:53;6.30;99.90
16643;DHT22;8435;52.184;5.406;2023-02-14T01:41:21;6.20;99.90
16643;DHT22;8435;52.184;5.406;2023-02-14T01:43:58;6.20;99.90
16643;DHT22;8435;52.184;5.406;2023-02-14T01:46:27;6.20;99.90
16643;DHT22;8435;52.184;5.406;2023-02-14T01:48:58;6.20;99.90
16643;DHT22;8435;52.184;5.406;2023-02-14T01:51:26;6.20;99.90
16643;DHT22;8435;52.184;5.406;2023-02-14T01:53:54;6.20;99.90
16643;DHT22;8435;52.184;5.406;2023-02-14T01:56:25;6.20;99.90
16643;DHT22;8435;52.184;5.406;2023-02-14T01:58:57;6.10;99.90
16643;DHT22;8435;52.184;5.406;2023-02-14T02:01:25;6.10;99.90
16643;DHT22;8435;52.184;5.406;2023-02-14T02:03:54;6.10;99.90
16643;DHT22;8435;52.184;5.406;2023-02-14T02:06:28;6.10;99.90
16643;DHT22;8435;52.184;5.406;2023-02-14T02:09:04;6.00;99.90
16643;DHT22;8435;52.184;5.406;2023-02-14T02:11:34;6.00;99.90
16643;DHT22;8435;52.184;5.406;2023-02-14T02:14:04;6.00;99.90
16643;DHT22;8435;52.184;5.406;2023-02-14T02:16:44;6.00;99.90
16643;DHT22;8435;52.184;5.406;2023-02-14T02:22:30;5.90;99.90
16643;DHT22;8435;52.184;5.406;2023-02-14T02:25:04;5.90;99.90
16643;DHT22;8435;52.184;5.406;2023-02-14T02:28:04;5.80;99.90
16643;DHT22;8435;52.184;5.406;2023-02-14T02:30:59;5.80;99.90
16643;DHT22;8435;52.184;5.406;2023-02-14T02:37:02;5.80;99.90
16643;DHT22;8435;52.184;5.406;2023-02-14T02:39:54;5.70;99.90
16643;DHT22;8435;52.184;5.406;2023-02-14T02:42:29;5.70;99.90
16643;DHT22;8435;52.184;5.406;2023-02-14T02:45:08;5.70;99.90
16643;DHT22;8435;52.184;5.406;2023-02-14T02:47:41;5.70;99.90
16643;DHT22;8435;52.184;5.406;2023-02-14T02:50:19;5.70;99.90
16643;DHT22;8435;52.184;5.406;2023-02-14T02:53:14;5.70;99.90
16643;DHT22;8435;52.184;5.406;2023-02-14T02:55:44;5.70;99.90
16643;DHT22;8435;52.184;5.406;2023-02-14T02:58:33;5.70;99.90
16643;DHT22;8435;52.184;5.406;2023-02-14T03:01:05;5.60;99.90
16643;DHT22;8435;52.184;5.406;2023-02-14T03:03:34;5.60;99.90
16643;DHT22;8435;52.184;5.406;2023-02-14T03:06:20;5.60;99.90
16643;DHT22;8435;52.184;5.406;2023-02-14T03:08:48;5.60;99.90
16643;DHT22;8435;52.184;5.406;2023-02-14T03:11:15;5.60;99.90
16643;DHT22;8435;52.184;5.406;2023-02-14T03:14:06;5.60;99.90
16643;DHT22;8435;52.184;5.406;2023-02-14T03:16:37;5.50;99.90
16643;DHT22;8435;52.184;5.406;2023-02-14T03:22:32;5.50;99.90
16643;DHT22;8435;52.184;5.406;2023-02-14T03:25:06;5.50;99.90
16643;DHT22;8435;52.184;5.406;2023-02-14T03:27:40;5.40;99.90
16643;DHT22;8435;52.184;5.406;2023-02-14T03:30:14;5.40;99.90
16643;DHT22;8435;52.184;5.406;2023-02-14T03:32:46;5.40;99.90
16643;DHT22;8435;52.184;5.406;2023-02-14T03:35:19;5.30;99.90
16643;DHT22;8435;52.184;5.406;2023-02-14T03:37:51;5.30;99.90
16643;DHT22;8435;52.184;5.406;2023-02-14T03:40:25;5.30;99.90
16643;DHT22;8435;52.184;5.406;2023-02-14T03:42:57;5.30;99.90
16643;DHT22;8435;52.184;5.406;2023-02-14T03:45:29;5.30;99.90
16643;DHT22;8435;52.184;5.406;2023-02-14T03:48:02;5.20;99.90
16643;DHT22;8435;52.184;5.406;2023-02-14T03:50:31;5.20;99.90
16643;DHT22;8435;52.184;5.406;2023-02-14T03:53:02;5.20;99.90
16643;DHT22;8435;52.184;5.406;2023-02-14T03:55:33;5.20;99.90
16643;DHT22;8435;52.184;5.406;2023-02-14T03:58:07;5.20;99.90
16643;DHT22;8435;52.184;5.406;2023-02-14T04:00:36;5.20;99.90
16643;DHT22;8435;52.184;5.406;2023-02-14T04:03:08;5.20;99.90
16643;DHT22;8435;52.184;5.406;2023-02-14T04:05:37;5.20;99.90
16643;DHT22;8435;52.184;5.406;2023-02-14T04:08:09;5.10;99.90
16643;DHT22;8435;52.184;5.406;2023-02-14T04:10:37;5.10;99.90
16643;DHT22;8435;52.184;5.406;2023-02-14T04:13:10;5.10;99.90
16643;DHT22;8435;52.184;5.406;2023-02-14T04:15:36;5.10;99.90
16643;DHT22;8435;52.184;5.406;2023-02-14T04:18:03;5.10;99.90
16643;DHT22;8435;52.184;5.406;2023-02-14T04:20:47;5.10;99.90
16643;DHT22;8435;52.184;5.406;2023-02-14T04:23:15;5.10;99.90
16643;DHT22;8435;52.184;5.406;2023-02-14T04:25:43;5.00;99.90
16643;DHT22;8435;52.184;5.406;2023-02-14T04:28:10;5.00;99.90
16643;DHT22;8435;52.184;5.406;2023-02-14T04:30:37;5.00;99.90
16643;DHT22;8435;52.184;5.406;2023-02-14T04:33:04;5.00;99.90
16643;DHT22;8435;52.184;5.406;2023-02-14T04:35:32;5.00;99.90
16643;DHT22;8435;52.184;5.406;2023-02-14T04:37:59;5.00;99.90
16643;DHT22;8435;52.184;5.406;2023-02-14T04:40:26;5.00;99.90
16643;DHT22;8435;52.184;5.406;2023-02-14T04:42:55;5.00;99.90
16643;DHT22;8435;52.184;5.406;2023-02-14T04:45:21;5.00;99.90
16643;DHT22;8435;52.184;5.406;2023-02-14T04:47:48;4.90;99.90
16643;DHT22;8435;52.184;5.406;2023-02-14T04:50:16;4.90;99.90
16643;DHT22;8435;52.184;5.406;2023-02-14T04:52:43;4.90;99.90
16643;DHT22;8435;52.184;5.406;2023-02-14T04:55:10;4.90;99.90
16643;DHT22;8435;52.184;5.406;2023-02-14T04:57:36;4.80;99.90
16643;DHT22;8435;52.184;5.406;2023-02-14T05:00:06;4.80;99.90
16643;DHT22;8435;52.184;5.406;2023-02-14T05:02:33;4.80;99.90
16643;DHT22;8435;52.184;5.406;2023-02-14T05:04:59;4.80;99.90
16643;DHT22;8435;52.184;5.406;2023-02-14T05:07:26;4.80;99.90
16643;DHT22;8435;52.184;5.406;2023-02-14T05:09:53;4.80;99.90
16643;DHT22;8435;52.184;5.406;2023-02-14T05:12:19;4.80;99.90
16643;DHT22;8435;52.184;5.406;2023-02-14T05:14:46;4.80;99.90
16643;DHT22;8435;52.184;5.406;2023-02-14T05:17:14;4.70;99.90
16643;DHT22;8435;52.184;5.406;2023-02-14T05:19:41;4.70;99.90
16643;DHT22;8435;52.184;5.406;2023-02-14T05:22:08;4.70;99.90
16643;DHT22;8435;52.184;5.406;2023-02-14T05:24:35;4.70;99.90
16643;DHT22;8435;52.184;5.406;2023-02-14T05:27:02;4.70;99.90
16643;DHT22;8435;52.184;5.406;2023-02-14T05:29:28;4.60;99.90
16643;DHT22;8435;52.184;5.406;2023-02-14T05:31:55;4.60;99.90
16643;DHT22;8435;52.184;5.406;2023-02-14T05:34:23;4.60;99.90
16643;DHT22;8435;52.184;5.406;2023-02-14T05:36:50;4.60;99.90
16643;DHT22;8435;52.184;5.406;2023-02-14T05:39:18;4.60;99.90
16643;DHT22;8435;52.184;5.406;2023-02-14T05:41:45;4.60;99.90
16643;DHT22;8435;52.184;5.406;2023-02-14T05:44:12;4.60;99.90
16643;DHT22;8435;52.184;5.406;2023-02-14T05:46:38;4.60;99.90
16643;DHT22;8435;52.184;5.406;2023-02-14T05:49:05;4.50;99.90
16643;DHT22;8435;52.184;5.406;2023-02-14T05:51:33;4.50;99.90
16643;DHT22;8435;52.184;5.406;2023-02-14T05:54:00;4.50;99.90
16643;DHT22;8435;52.184;5.406;2023-02-14T05:56:27;4.50;99.90
16643;DHT22;8435;52.184;5.406;2023-02-14T05:58:56;4.50;99.90
16643;DHT22;8435;52.184;5.406;2023-02-14T06:01:23;4.50;99.90
16643;DHT22;8435;52.184;5.406;2023-02-14T06:03:52;4.50;99.90
16643;DHT22;8435;52.184;5.406;2023-02-14T06:06:19;4.50;99.90
16643;DHT22;8435;52.184;5.406;2023-02-14T06:08:47;4.50;99.90
16643;DHT22;8435;52.184;5.406;2023-02-14T06:11:14;4.50;99.90
16643;DHT22;8435;52.184;5.406;2023-02-14T06:13:41;4.50;99.90
16643;DHT22;8435;52.184;5.406;2023-02-14T06:16:10;4.40;99.90
16643;DHT22;8435;52.184;5.406;2023-02-14T06:18:37;4.50;99.90
16643;DHT22;8435;52.184;5.406;2023-02-14T06:21:04;4.50;99.90
16643;DHT22;8435;52.184;5.406;2023-02-14T06:23:33;4.40;99.90
16643;DHT22;8435;52.184;5.406;2023-02-14T06:26:01;4.40;99.90
16643;DHT22;8435;52.184;5.406;2023-02-14T06:28:28;4.40;99.90
16643;DHT22;8435;52.184;5.406;2023-02-14T06:30:54;4.40;99.90
16643;DHT22;8435;52.184;5.406;2023-02-14T06:33:21;4.40;99.90
16643;DHT22;8435;52.184;5.406;2023-02-14T06:35:48;4.40;99.90
16643;DHT22;8435;52.184;5.406;2023-02-14T06:38:16;4.40;99.90
16643;DHT22;8435;52.184;5.406;2023-02-14T06:40:43;4.40;99.90
16643;DHT22;8435;52.184;5.406;2023-02-14T06:43:11;4.40;99.90
16643;DHT22;8435;52.184;5.406;2023-02-14T06:45:38;4.40;99.90
16643;DHT22;8435;52.184;5.406;2023-02-14T06:48:08;4.40;99.90
16643;DHT22;8435;52.184;5.406;2023-02-14T06:50:34;4.40;99.90
16643;DHT22;8435;52.184;5.406;2023-02-14T06:53:01;4.40;99.90
16643;DHT22;8435;52.184;5.406;2023-02-14T06:55:28;4.40;99.90
16643;DHT22;8435;52.184;5.406;2023-02-14T06:57:55;4.40;99.90
16643;DHT22;8435;52.184;5.406;2023-02-14T07:00:23;4.40;99.90
16643;DHT22;8435;52.184;5.406;2023-02-14T07:02:50;4.40;99.90
16643;DHT22;8435;52.184;5.406;2023-02-14T07:05:16;4.40;99.90
16643;DHT22;8435;52.184;5.406;2023-02-14T07:07:44;4.40;99.90
16643;DHT22;8435;52.184;5.406;2023-02-14T07:10:11;4.40;99.90
16643;DHT22;8435;52.184;5.406;2023-02-14T07:12:38;4.40;99.90
16643;DHT22;8435;52.184;5.406;2023-02-14T07:15:06;4.40;99.90
16643;DHT22;8435;52.184;5.406;2023-02-14T07:17:34;4.40;99.90
16643;DHT22;8435;52.184;5.406;2023-02-14T07:20:01;4.50;99.90
16643;DHT22;8435;52.184;5.406;2023-02-14T07:22:28;4.40;99.90
16643;DHT22;8435;52.184;5.406;2023-02-14T07:24:54;4.40;99.90
16643;DHT22;8435;52.184;5.406;2023-02-14T07:27:21;4.50;99.90
16643;DHT22;8435;52.184;5.406;2023-02-14T07:29:48;4.50;99.90
16643;DHT22;8435;52.184;5.406;2023-02-14T07:32:15;4.50;99.90
16643;DHT22;8435;52.184;5.406;2023-02-14T07:34:43;4.50;99.90
16643;DHT22;8435;52.184;5.406;2023-02-14T07:37:09;4.50;99.90
16643;DHT22;8435;52.184;5.406;2023-02-14T07:39:36;4.50;99.90
16643;DHT22;8435;52.184;5.406;2023-02-14T07:42:04;4.60;99.90
16643;DHT22;8435;52.184;5.406;2023-02-14T07:44:32;4.60;99.90
16643;DHT22;8435;52.184;5.406;2023-02-14T07:46:59;4.60;99.90
16643;DHT22;8435;52.184;5.406;2023-02-14T07:49:26;4.70;99.90
16643;DHT22;8435;52.184;5.406;2023-02-14T07:51:54;4.70;99.90
16643;DHT22;8435;52.184;5.406;2023-02-14T07:54:21;4.70;99.90
16643;DHT22;8435;52.184;5.406;2023-02-14T07:56:48;4.80;99.90
16643;DHT22;8435;52.184;5.406;2023-02-14T07:59:15;4.80;99.90
16643;DHT22;8435;52.184;5.406;2023-02-14T08:01:42;4.90;99.90
16643;DHT22;8435;52.184;5.406;2023-02-14T08:04:09;5.00;99.90
16643;DHT22;8435;52.184;5.406;2023-02-14T08:06:38;5.00;99.90
16643;DHT22;8435;52.184;5.406;2023-02-14T08:09:09;5.10;99.90
16643;DHT22;8435;52.184;5.406;2023-02-14T08:11:36;5.20;99.90
16643;DHT22;8435;52.184;5.406;2023-02-14T08:14:17;5.20;99.90
16643;DHT22;8435;52.184;5.406;2023-02-14T08:16:44;5.30;99.90
16643;DHT22;8435;52.184;5.406;2023-02-14T08:19:10;5.40;99.90
16643;DHT22;8435;52.184;5.406;2023-02-14T08:21:37;5.50;99.90
16643;DHT22;8435;52.184;5.406;2023-02-14T08:24:04;5.70;99.90
16643;DHT22;8435;52.184;5.406;2023-02-14T08:26:32;5.80;99.90
16643;DHT22;8435;52.184;5.406;2023-02-14T08:29:00;6.00;99.90
16643;DHT22;8435;52.184;5.406;2023-02-14T08:31:29;6.20;99.90
16643;DHT22;8435;52.184;5.406;2023-02-14T08:33:56;6.40;99.90
16643;DHT22;8435;52.184;5.406;2023-02-14T08:36:26;6.60;99.90
16643;DHT22;8435;52.184;5.406;2023-02-14T08:38:53;6.80;99.90
16643;DHT22;8435;52.184;5.406;2023-02-14T08:41:20;7.00;99.90
16643;DHT22;8435;52.184;5.406;2023-02-14T08:43:48;7.20;99.90
16643;DHT22;8435;52.184;5.406;2023-02-14T08:46:15;7.40;99.90
16643;DHT22;8435;52.184;5.406;2023-02-14T08:48:42;7.60;99.90
16643;DHT22;8435;52.184;5.406;2023-02-14T08:51:11;7.80;99.90
16643;DHT22;8435;52.184;5.406;2023-02-14T08:53:38;8.00;99.90
16643;DHT22;8435;52.184;5.406;2023-02-14T08:56:13;8.20;99.90
16643;DHT22;8435;52.184;5.406;2023-02-14T08:58:40;8.40;99.90
16643;DHT22;8435;52.184;5.406;2023-02-14T09:01:09;8.50;99.90
16643;DHT22;8435;52.184;5.406;2023-02-14T09:03:36;8.70;99.90
16643;DHT22;8435;52.184;5.406;2023-02-14T09:06:03;8.90;99.90
16643;DHT22;8435;52.184;5.406;2023-02-14T09:08:30;9.00;99.90
16643;DHT22;8435;52.184;5.406;2023-02-14T09:11:00;9.10;99.90
16643;DHT22;8435;52.184;5.406;2023-02-14T09:13:31;9.30;99.90
16643;DHT22;8435;52.184;5.406;2023-02-14T09:16:02;9.40;99.90
16643;DHT22;8435;52.184;5.406;2023-02-14T09:18:32;9.40;99.90
16643;DHT22;8435;52.184;5.406;2023-02-14T09:20:59;9.40;99.90
16643;DHT22;8435;52.184;5.406;2023-02-14T09:23:26;9.40;99.90
16643;DHT22;8435;52.184;5.406;2023-02-14T09:25:59;9.40;99.90
16643;DHT22;8435;52.184;5.406;2023-02-14T09:28:26;9.40;99.90
16643;DHT22;8435;52.184;5.406;2023-02-14T09:30:52;9.30;99.90
16643;DHT22;8435;52.184;5.406;2023-02-14T09:33:19;9.30;99.90
16643;DHT22;8435;52.184;5.406;2023-02-14T09:35:48;9.20;99.90
16643;DHT22;8435;52.184;5.406;2023-02-14T09:38:14;9.20;99.90
16643;DHT22;8435;52.184;5.406;2023-02-14T09:40:46;9.10;99.90
16643;DHT22;8435;52.184;5.406;2023-02-14T09:43:29;9.00;99.90
16643;DHT22;8435;52.184;5.406;2023-02-14T09:46:00;9.10;99.90
16643;DHT22;8435;52.184;5.406;2023-02-14T09:48:31;9.10;99.90
16643;DHT22;8435;52.184;5.406;2023-02-14T09:51:05;9.10;99.90
16643;DHT22;8435;52.184;5.406;2023-02-14T09:53:34;9.20;99.90
16643;DHT22;8435;52.184;5.406;2023-02-14T09:56:13;9.20;99.90
16643;DHT22;8435;52.184;5.406;2023-02-14T09:58:49;9.30;99.90
16643;DHT22;8435;52.184;5.406;2023-02-14T10:01:21;9.30;99.90
16643;DHT22;8435;52.184;5.406;2023-02-14T10:04:12;9.30;99.90
16643;DHT22;8435;52.184;5.406;2023-02-14T10:06:48;9.30;99.90
16643;DHT22;8435;52.184;5.406;2023-02-14T10:09:29;9.40;99.90
16643;DHT22;8435;52.184;5.406;2023-02-14T10:12:00;9.40;99.90
16643;DHT22;8435;52.184;5.406;2023-02-14T10:14:29;9.40;99.90
16643;DHT22;8435;52.184;5.406;2023-02-14T10:17:03;9.40;99.90
16643;DHT22;8435;52.184;5.406;2023-02-14T10:19:36;9.50;99.90
16643;DHT22;8435;52.184;5.406;2023-02-14T10:22:08;9.50;99.90
16643;DHT22;8435;52.184;5.406;2023-02-14T10:24:44;9.60;99.90
16643;DHT22;8435;52.184;5.406;2023-02-14T10:27:22;9.60;99.90
16643;DHT22;8435;52.184;5.406;2023-02-14T10:29:52;9.70;99.90
16643;DHT22;8435;52.184;5.406;2023-02-14T10:32:24;9.80;99.90
16643;DHT22;8435;52.184;5.406;2023-02-14T10:34:55;9.80;99.90
16643;DHT22;8435;52.184;5.406;2023-02-14T10:37:36;9.80;99.90
16643;DHT22;8435;52.184;5.406;2023-02-14T10:40:33;9.90;99.90
16643;DHT22;8435;52.184;5.406;2023-02-14T10:43:09;10.00;99.90
16643;DHT22;8435;52.184;5.406;2023-02-14T10:45:44;10.00;99.90
16643;DHT22;8435;52.184;5.406;2023-02-14T10:48:17;10.10;99.90
16643;DHT22;8435;52.184;5.406;2023-02-14T10:50:55;10.10;99.90
16643;DHT22;8435;52.184;5.406;2023-02-14T10:53:32;10.20;99.90
16643;DHT22;8435;52.184;5.406;2023-02-14T10:56:04;10.30;99.90
16643;DHT22;8435;52.184;5.406;2023-02-14T10:58:35;10.40;99.90
16643;DHT22;8435;52.184;5.406;2023-02-14T11:01:07;10.40;99.90
16643;DHT22;8435;52.184;5.406;2023-02-14T11:03:37;10.40;99.90
16643;DHT22;8435;52.184;5.406;2023-02-14T11:06:06;10.50;99.90
16643;DHT22;8435;52.184;5.406;2023-02-14T11:08:36;10.60;99.90
16643;DHT22;8435;52.184;5.406;2023-02-14T11:11:12;10.60;99.90
16643;DHT22;8435;52.184;5.406;2023-02-14T11:13:40;10.70;99.90
16643;DHT22;8435;52.184;5.406;2023-02-14T11:16:09;10.70;99.90
16643;DHT22;8435;52.184;5.406;2023-02-14T11:18:37;10.80;99.90
16643;DHT22;8435;52.184;5.406;2023-02-14T11:21:09;10.90;99.90
16643;DHT22;8435;52.184;5.406;2023-02-14T11:23:39;10.90;99.90
16643;DHT22;8435;52.184;5.406;2023-02-14T11:26:10;11.00;99.90
16643;DHT22;8435;52.184;5.406;2023-02-14T11:28:47;11.00;99.90
16643;DHT22;8435;52.184;5.406;2023-02-14T11:31:30;11.10;99.90
16643;DHT22;8435;52.184;5.406;2023-02-14T11:33:58;11.10;99.90
16643;DHT22;8435;52.184;5.406;2023-02-14T11:36:26;11.20;99.90
16643;DHT22;8435;52.184;5.406;2023-02-14T11:39:01;11.30;99.90
16643;DHT22;8435;52.184;5.406;2023-02-14T11:41:46;11.30;99.90
16643;DHT22;8435;52.184;5.406;2023-02-14T11:44:15;11.40;99.90
16643;DHT22;8435;52.184;5.406;2023-02-14T11:46:47;11.40;99.90
16643;DHT22;8435;52.184;5.406;2023-02-14T11:49:28;11.50;99.90
16643;DHT22;8435;52.184;5.406;2023-02-14T11:51:56;11.50;99.90
16643;DHT22;8435;52.184;5.406;2023-02-14T11:54:30;11.60;99.90
16643;DHT22;8435;52.184;5.406;2023-02-14T11:57:02;11.70;99.90
16643;DHT22;8435;52.184;5.406;2023-02-14T11:59:35;11.70;99.90
16643;DHT22;8435;52.184;5.406;2023-02-14T12:02:20;11.80;99.90
16643;DHT22;8435;52.184;5.406;2023-02-14T12:04:51;11.80;99.90
16643;DHT22;8435;52.184;5.406;2023-02-14T12:07:23;11.80;99.90
16643;DHT22;8435;52.184;5.406;2023-02-14T12:12:58;12.00;99.90
16643;DHT22;8435;52.184;5.406;2023-02-14T12:15:32;12.00;99.90
16643;DHT22;8435;52.184;5.406;2023-02-14T12:18:32;12.10;99.90
16643;DHT22;8435;52.184;5.406;2023-02-14T12:21:06;12.10;99.70
16643;DHT22;8435;52.184;5.406;2023-02-14T12:23:40;12.10;99.80
16643;DHT22;8435;52.184;5.406;2023-02-14T12:26:16;12.20;99.70
16643;DHT22;8435;52.184;5.406;2023-02-14T12:28:50;12.20;99.60
16643;DHT22;8435;52.184;5.406;2023-02-14T12:31:21;12.30;99.50
16643;DHT22;8435;52.184;5.406;2023-02-14T12:33:48;12.30;99.50
16643;DHT22;8435;52.184;5.406;2023-02-14T12:36:24;12.40;99.50
16643;DHT22;8435;52.184;5.406;2023-02-14T12:39:02;12.40;99.30
16643;DHT22;8435;52.184;5.406;2023-02-14T12:41:43;12.50;99.20
16643;DHT22;8435;52.184;5.406;2023-02-14T12:44:20;12.50;98.90
16643;DHT22;8435;52.184;5.406;2023-02-14T12:47:07;12.50;98.90
16643;DHT22;8435;52.184;5.406;2023-02-14T12:49:58;12.60;98.80
16643;DHT22;8435;52.184;5.406;2023-02-14T12:52:37;12.60;98.80
16643;DHT22;8435;52.184;5.406;2023-02-14T12:55:22;12.70;98.70
16643;DHT22;8435;52.184;5.406;2023-02-14T12:57:58;12.70;98.40
16643;DHT22;8435;52.184;5.406;2023-02-14T13:00:36;12.80;98.60
16643;DHT22;8435;52.184;5.406;2023-02-14T13:03:20;12.80;98.40
16643;DHT22;8435;52.184;5.406;2023-02-14T13:06:00;12.80;98.30
16643;DHT22;8435;52.184;5.406;2023-02-14T13:08:43;12.80;98.40
16643;DHT22;8435;52.184;5.406;2023-02-14T13:11:18;12.90;98.20
16643;DHT22;8435;52.184;5.406;2023-02-14T13:13:54;12.90;98.10
16643;DHT22;8435;52.184;5.406;2023-02-14T13:16:36;12.90;98.10
16643;DHT22;8435;52.184;5.406;2023-02-14T13:19:12;12.90;98.00
16643;DHT22;8435;52.184;5.406;2023-02-14T13:21:44;13.00;97.90
16643;DHT22;8435;52.184;5.406;2023-02-14T13:24:15;13.00;98.10
16643;DHT22;8435;52.184;5.406;2023-02-14T13:26:47;13.00;98.00
16643;DHT22;8435;52.184;5.406;2023-02-14T13:29:18;13.00;97.70
16643;DHT22;8435;52.184;5.406;2023-02-14T13:31:49;13.10;97.60
16643;DHT22;8435;52.184;5.406;2023-02-14T13:34:23;13.10;97.50
16643;DHT22;8435;52.184;5.406;2023-02-14T13:36:52;13.10;97.50
16643;DHT22;8435;52.184;5.406;2023-02-14T13:39:24;13.10;97.60
16643;DHT22;8435;52.184;5.406;2023-02-14T13:41:53;13.20;97.40
16643;DHT22;8435;52.184;5.406;2023-02-14T13:44:41;13.20;97.50
16643;DHT22;8435;52.184;5.406;2023-02-14T13:47:15;13.20;96.90
16643;DHT22;8435;52.184;5.406;2023-02-14T13:49:48;13.20;97.10
16643;DHT22;8435;52.184;5.406;2023-02-14T13:52:43;13.20;97.10
16643;DHT22;8435;52.184;5.406;2023-02-14T13:55:16;13.30;96.90
16643;DHT22;8435;52.184;5.406;2023-02-14T13:57:44;13.30;97.00
16643;DHT22;8435;52.184;5.406;2023-02-14T14:00:42;13.30;97.10
16643;DHT22;8435;52.184;5.406;2023-02-14T14:03:14;13.40;96.80
16643;DHT22;8435;52.184;5.406;2023-02-14T14:06:03;13.40;97.10
16643;DHT22;8435;52.184;5.406;2023-02-14T14:08:44;13.40;96.80
16643;DHT22;8435;52.184;5.406;2023-02-14T14:14:30;13.40;96.60
16643;DHT22;8435;52.184;5.406;2023-02-14T14:17:02;13.40;96.70
16643;DHT22;8435;52.184;5.406;2023-02-14T14:19:39;13.50;97.00
16643;DHT22;8435;52.184;5.406;2023-02-14T14:22:08;13.50;96.60
16643;DHT22;8435;52.184;5.406;2023-02-14T14:24:38;13.50;96.60
16643;DHT22;8435;52.184;5.406;2023-02-14T14:27:12;13.50;96.70
16643;DHT22;8435;52.184;5.406;2023-02-14T14:29:44;13.50;96.50
16643;DHT22;8435;52.184;5.406;2023-02-14T14:32:16;13.50;96.50
16643;DHT22;8435;52.184;5.406;2023-02-14T14:34:49;13.50;96.60
16643;DHT22;8435;52.184;5.406;2023-02-14T14:37:18;13.50;96.50
16643;DHT22;8435;52.184;5.406;2023-02-14T14:39:49;13.50;96.70
16643;DHT22;8435;52.184;5.406;2023-02-14T14:42:17;13.60;96.40
16643;DHT22;8435;52.184;5.406;2023-02-14T14:44:47;13.50;96.60
16643;DHT22;8435;52.184;5.406;2023-02-14T14:47:16;13.60;96.40
16643;DHT22;8435;52.184;5.406;2023-02-14T14:49:45;13.60;96.30
16643;DHT22;8435;52.184;5.406;2023-02-14T14:52:24;13.60;96.50
16643;DHT22;8435;52.184;5.406;2023-02-14T14:54:53;13.60;96.10
16643;DHT22;8435;52.184;5.406;2023-02-14T14:57:20;13.60;96.40
16643;DHT22;8435;52.184;5.406;2023-02-14T14:59:47;13.50;96.30
16643;DHT22;8435;52.184;5.406;2023-02-14T15:02:21;13.60;96.40
16643;DHT22;8435;52.184;5.406;2023-02-14T15:04:48;13.60;96.20
16643;DHT22;8435;52.184;5.406;2023-02-14T15:07:23;13.60;96.30
16643;DHT22;8435;52.184;5.406;2023-02-14T15:09:53;13.60;96.20
16643;DHT22;8435;52.184;5.406;2023-02-14T15:12:23;13.60;96.30
16643;DHT22;8435;52.184;5.406;2023-02-14T15:15:10;13.60;96.20
16643;DHT22;8435;52.184;5.406;2023-02-14T15:17:37;13.60;96.20
16643;DHT22;8435;52.184;5.406;2023-02-14T15:20:08;13.50;96.10
16643;DHT22;8435;52.184;5.406;2023-02-14T15:22:42;13.50;96.10
16643;DHT22;8435;52.184;5.406;2023-02-14T15:25:12;13.50;96.00
16643;DHT22;8435;52.184;5.406;2023-02-14T15:27:42;13.60;96.40
16643;DHT22;8435;52.184;5.406;2023-02-14T15:30:23;13.50;96.30
16643;DHT22;8435;52.184;5.406;2023-02-14T15:32:54;13.50;96.00
16643;DHT22;8435;52.184;5.406;2023-02-14T15:35:24;13.50;96.10
16643;DHT22;8435;52.184;5.406;2023-02-14T15:37:54;13.50;96.10
16643;DHT22;8435;52.184;5.406;2023-02-14T15:40:25;13.50;96.00
16643;DHT22;8435;52.184;5.406;2023-02-14T15:42:53;13.50;96.00
16643;DHT22;8435;52.184;5.406;2023-02-14T15:45:28;13.50;96.20
16643;DHT22;8435;52.184;5.406;2023-02-14T15:47:57;13.50;96.10
16643;DHT22;8435;52.184;5.406;2023-02-14T15:50:26;13.50;96.00
16643;DHT22;8435;52.184;5.406;2023-02-14T15:53:01;13.50;96.00
16643;DHT22;8435;52.184;5.406;2023-02-14T15:55:29;13.40;95.80
16643;DHT22;8435;52.184;5.406;2023-02-14T15:58:02;13.40;96.00
16643;DHT22;8435;52.184;5.406;2023-02-14T16:00:29;13.40;95.90
16643;DHT22;8435;52.184;5.406;2023-02-14T16:03:01;13.40;96.00
16643;DHT22;8435;52.184;5.406;2023-02-14T16:05:30;13.40;96.00
16643;DHT22;8435;52.184;5.406;2023-02-14T16:08:00;13.30;96.00
16643;DHT22;8435;52.184;5.406;2023-02-14T16:10:31;13.30;96.00
16643;DHT22;8435;52.184;5.406;2023-02-14T16:13:00;13.20;96.00
16643;DHT22;8435;52.184;5.406;2023-02-14T16:15:29;13.20;96.20
16643;DHT22;8435;52.184;5.406;2023-02-14T16:17:57;13.20;96.30
16643;DHT22;8435;52.184;5.406;2023-02-14T16:20:29;13.20;96.50
16643;DHT22;8435;52.184;5.406;2023-02-14T16:23:24;13.10;96.80
16643;DHT22;8435;52.184;5.406;2023-02-14T16:25:52;13.00;96.60
16643;DHT22;8435;52.184;5.406;2023-02-14T16:28:21;13.00;96.70
16643;DHT22;8435;52.184;5.406;2023-02-14T16:30:53;13.00;96.90
16643;DHT22;8435;52.184;5.406;2023-02-14T16:33:22;12.90;97.10
16643;DHT22;8435;52.184;5.406;2023-02-14T16:35:49;12.90;97.30
16643;DHT22;8435;52.184;5.406;2023-02-14T16:38:19;12.80;97.20